Time;durP1;ratioP1;P1;durP2;ratioP2;P2;SDS_P1;SDS_P2;PMS_P1;PMS_P2;Temp;Humidity;BMP_temperature;BMP_pressure;BME280_temperature;BME280_humidity;BME280_pressure;Samples;Min_cycle;Max_cycle;Signal;HPM_P1;HPM_P2
2022/11/12 00:00:04;;;;;;;7.95;6.00;;;;;;;;;;1049586;28;20556;-80
2022/11/12 00:00:35;;;;;;;9.13;6.43;;;;;;;;;;1049477;28;20403;-80
2022/11/12 00:01:06;;;;;;;10.65;6.65;;;;;;;;;;1049381;28;20598;-81
2022/11/12 00:01:37;;;;;;;7.15;5.75;;;;;;;;;;1048787;28;20550;-81
2022/11/12 00:02:08;;;;;;;9.10;6.20;;;;;;;;;;1049242;28;20399;-80
2022/11/12 00:02:38;;;;;;;8.95;6.82;;;;;;;;;;1053904;28;20095;-81
2022/11/12 00:03:10;;;;;;;7.60;6.80;;;;;;;;;;1049230;28;20048;-80
2022/11/12 00:03:41;;;;;;;9.50;6.95;;;;;;;;;;1044958;28;20061;-79
2022/11/12 00:04:12;;;;;;;7.57;6.38;;;;;;;;;;1049436;28;20020;-80
2022/11/12 00:04:43;;;;;;;8.82;7.10;;;;;;;;;;1045393;28;20001;-80
2022/11/12 00:05:14;;;;;;;8.15;5.55;;;;;;;;;;1045730;28;20076;-80
2022/11/12 00:05:45;;;;;;;9.10;6.60;;;;;;;;;;1045224;28;20086;-80
2022/11/12 00:06:16;;;;;;;8.65;6.63;;;;;;;;;;1041458;28;20096;-80
2022/11/12 00:06:47;;;;;;;10.45;6.85;;;;;;;;;;1044005;28;20039;-79
2022/11/12 00:07:18;;;;;;;8.23;6.65;;;;;;;;;;1041461;28;20124;-81
2022/11/12 00:07:49;;;;;;;8.85;7.38;;;;;;;;;;1041067;28;20031;-80
2022/11/12 00:08:20;;;;;;;7.05;6.30;;;;;;;;;;1041190;28;20058;-81
2022/11/12 00:08:51;;;;;;;7.00;5.95;;;;;;;;;;1045545;28;20005;-80
2022/11/12 00:09:22;;;;;;;8.10;6.53;;;;;;;;;;1049477;28;20413;-80
2022/11/12 00:09:53;;;;;;;8.50;5.97;;;;;;;;;;1049085;28;20115;-80
2022/11/12 00:10:24;;;;;;;9.32;7.25;;;;;;;;;;1048273;28;20036;-80
2022/11/12 00:10:55;;;;;;;9.90;6.03;;;;;;;;;;1044988;28;20270;-81
2022/11/12 00:11:26;;;;;;;7.75;5.95;;;;;;;;;;1040762;28;20038;-81
2022/11/12 00:11:57;;;;;;;7.95;6.40;;;;;;;;;;1043316;28;20097;-82
2022/11/12 00:12:28;;;;;;;6.82;6.03;;;;;;;;;;1045486;28;20112;-81
2022/11/12 00:12:59;;;;;;;9.77;7.07;;;;;;;;;;1049639;28;20024;-81
2022/11/12 00:13:30;;;;;;;8.15;5.82;;;;;;;;;;1052731;28;20044;-81
2022/11/12 00:14:01;;;;;;;7.68;5.90;;;;;;;;;;1049023;28;20429;-80
2022/11/12 00:14:32;;;;;;;8.40;5.55;;;;;;;;;;1049463;28;20055;-81
2022/11/12 00:15:03;;;;;;;7.68;5.80;;;;;;;;;;1049091;28;20101;-80
2022/11/12 00:15:34;;;;;;;8.85;6.03;;;;;;;;;;1049405;28;20495;-81
2022/11/12 00:16:05;;;;;;;8.90;6.20;;;;;;;;;;1053185;28;20413;-82
2022/11/12 00:16:36;;;;;;;7.50;6.10;;;;;;;;;;1048876;28;20025;-81
2022/11/12 00:17:07;;;;;;;6.72;5.55;;;;;;;;;;1045407;28;20025;-81
2022/11/12 00:17:38;;;;;;;8.52;5.38;;;;;;;;;;1045208;28;20029;-79
2022/11/12 00:18:09;;;;;;;7.47;5.60;;;;;;;;;;1041584;28;20017;-82
2022/11/12 00:18:40;;;;;;;9.40;6.18;;;;;;;;;;1045567;28;20013;-81
2022/11/12 00:19:11;;;;;;;7.30;6.03;;;;;;;;;;1044931;28;20024;-81
2022/11/12 00:19:42;;;;;;;8.48;6.43;;;;;;;;;;1045158;28;20017;-80
2022/11/12 00:20:13;;;;;;;8.25;5.70;;;;;;;;;;1045293;28;20505;-80
2022/11/12 00:20:44;;;;;;;7.68;6.32;;;;;;;;;;1050127;28;20054;-80
2022/11/12 00:21:15;;;;;;;8.27;6.35;;;;;;;;;;1049110;28;20519;-81
2022/11/12 00:21:46;;;;;;;9.27;6.35;;;;;;;;;;1044940;28;20478;-80
2022/11/12 00:22:17;;;;;;;8.25;6.03;;;;;;;;;;1041273;28;20043;-81
2022/11/12 00:22:48;;;;;;;9.27;6.15;;;;;;;;;;1045320;28;20558;-81
2022/11/12 00:23:19;;;;;;;6.50;5.57;;;;;;;;;;1045542;28;20022;-80
2022/11/12 00:23:50;;;;;;;7.53;6.07;;;;;;;;;;1052792;28;20099;-80
2022/11/12 00:24:21;;;;;;;8.40;6.30;;;;;;;;;;1046909;28;20024;-82
2022/11/12 00:24:52;;;;;;;10.50;5.93;;;;;;;;;;1045138;28;20025;-81
2022/11/12 00:25:23;;;;;;;7.68;5.68;;;;;;;;;;1045144;28;20421;-80
2022/11/12 00:25:58;;;;;;;6.72;5.53;;;;;;;;;;1041106;28;20018;-82
2022/11/12 00:26:29;;;;;;;8.27;6.40;;;;;;;;;;1041529;28;20033;-80
2022/11/12 00:26:59;;;;;;;8.07;5.88;;;;;;;;;;1045496;28;20056;-80
2022/11/12 00:27:34;;;;;;;6.47;5.70;;;;;;;;;;1049748;28;20025;-81
2022/11/12 00:28:06;;;;;;;6.93;5.38;;;;;;;;;;1053153;28;20074;-80
2022/11/12 00:28:37;;;;;;;7.38;5.60;;;;;;;;;;1053726;28;20024;-80
2022/11/12 00:29:08;;;;;;;9.10;6.85;;;;;;;;;;1048938;28;20454;-79
2022/11/12 00:29:39;;;;;;;7.95;6.03;;;;;;;;;;1044853;28;20104;-80
2022/11/12 00:30:10;;;;;;;7.75;5.57;;;;;;;;;;1040843;28;20021;-80
2022/11/12 00:30:41;;;;;;;6.88;5.18;;;;;;;;;;1041018;28;20028;-80
2022/11/12 00:31:12;;;;;;;9.20;5.25;;;;;;;;;;1045486;28;20032;-81
2022/11/12 00:31:43;;;;;;;9.35;5.93;;;;;;;;;;1044626;28;20035;-81
2022/11/12 00:32:14;;;;;;;8.23;4.95;;;;;;;;;;1044630;28;20032;-81
2022/11/12 00:32:45;;;;;;;6.95;5.97;;;;;;;;;;1041079;28;20025;-81
2022/11/12 00:33:16;;;;;;;7.38;5.47;;;;;;;;;;1044714;28;20088;-83
2022/11/12 00:33:47;;;;;;;9.93;5.82;;;;;;;;;;1044795;28;20021;-79
2022/11/12 00:34:18;;;;;;;7.78;5.45;;;;;;;;;;1040650;28;20026;-82
2022/11/12 00:34:49;;;;;;;7.25;4.50;;;;;;;;;;1048189;28;20112;-80
2022/11/12 00:35:20;;;;;;;8.32;5.68;;;;;;;;;;1044427;28;20025;-81
2022/11/12 00:35:51;;;;;;;6.57;5.03;;;;;;;;;;1040452;28;20026;-82
2022/11/12 00:36:22;;;;;;;8.60;5.53;;;;;;;;;;1043392;28;20055;-81
2022/11/12 00:36:53;;;;;;;8.52;6.03;;;;;;;;;;1040514;28;20022;-81
2022/11/12 00:37:24;;;;;;;9.75;5.80;;;;;;;;;;1041105;28;20277;-79
2022/11/12 00:37:57;;;;;;;8.00;5.60;;;;;;;;;;1042504;28;20048;-82
2022/11/12 00:38:30;;;;;;;9.13;5.90;;;;;;;;;;1048810;28;20024;-80
2022/11/12 00:39:01;;;;;;;7.28;5.22;;;;;;;;;;1045961;28;20025;-80
2022/11/12 00:39:32;;;;;;;7.28;5.38;;;;;;;;;;1049981;28;20119;-82
2022/11/12 00:40:03;;;;;;;6.32;5.50;;;;;;;;;;1053101;28;20020;-82
2022/11/12 00:40:34;;;;;;;6.18;4.95;;;;;;;;;;1048605;28;20136;-80
2022/11/12 00:41:05;;;;;;;5.85;4.68;;;;;;;;;;1044614;28;20021;-82
2022/11/12 00:41:36;;;;;;;6.70;5.47;;;;;;;;;;1041126;28;20013;-80
2022/11/12 00:42:07;;;;;;;8.60;5.68;;;;;;;;;;1044998;28;20136;-81
2022/11/12 00:42:38;;;;;;;8.32;5.07;;;;;;;;;;1044881;28;20021;-80
2022/11/12 00:43:09;;;;;;;6.35;5.15;;;;;;;;;;1047305;28;20119;-81
2022/11/12 00:43:40;;;;;;;7.70;5.60;;;;;;;;;;1044546;28;20115;-82
2022/11/12 00:44:10;;;;;;;6.18;5.10;;;;;;;;;;1040801;28;20021;-79
2022/11/12 00:44:41;;;;;;;7.28;5.40;;;;;;;;;;1040428;28;20063;-79
2022/11/12 00:45:12;;;;;;;6.13;5.50;;;;;;;;;;1040296;28;20033;-81
2022/11/12 00:45:43;;;;;;;10.68;6.72;;;;;;;;;;1040491;28;20076;-80
2022/11/12 00:46:14;;;;;;;8.65;5.65;;;;;;;;;;1039904;28;20087;-79
2022/11/12 00:46:45;;;;;;;6.72;5.43;;;;;;;;;;1040428;28;20104;-79
2022/11/12 00:47:16;;;;;;;6.40;5.20;;;;;;;;;;1039985;28;20057;-81
2022/11/12 00:47:47;;;;;;;6.40;5.28;;;;;;;;;;1040412;28;20369;-80
2022/11/12 00:48:18;;;;;;;5.32;4.43;;;;;;;;;;1039989;28;20520;-80
2022/11/12 00:48:49;;;;;;;6.07;4.80;;;;;;;;;;1036323;28;20076;-79
2022/11/12 00:49:20;;;;;;;5.93;5.32;;;;;;;;;;1040508;28;20469;-79
2022/11/12 00:49:51;;;;;;;6.28;5.50;;;;;;;;;;1044354;28;20024;-78
2022/11/12 00:50:23;;;;;;;8.55;5.18;;;;;;;;;;1048589;28;20028;-81
2022/11/12 00:51:00;;;;;;;7.07;4.63;;;;;;;;;;1044574;28;20027;-81
2022/11/12 00:51:31;;;;;;;7.03;5.50;;;;;;;;;;1045603;28;20028;-79
2022/11/12 00:52:02;;;;;;;5.72;4.55;;;;;;;;;;1044439;28;20060;-80
2022/11/12 00:52:33;;;;;;;6.57;4.70;;;;;;;;;;1045602;28;20033;-80
2022/11/12 00:53:04;;;;;;;6.85;5.32;;;;;;;;;;1044446;28;20025;-81
2022/11/12 00:53:35;;;;;;;8.50;5.18;;;;;;;;;;1048840;28;20028;-81
2022/11/12 00:54:06;;;;;;;5.63;4.53;;;;;;;;;;1049028;28;20025;-81
2022/11/12 00:54:37;;;;;;;6.85;5.68;;;;;;;;;;1049132;28;20051;-80
2022/11/12 00:55:08;;;;;;;5.57;5.03;;;;;;;;;;1044688;28;20035;-80
2022/11/12 00:55:39;;;;;;;8.23;4.55;;;;;;;;;;1040481;28;20022;-81
2022/11/12 00:56:10;;;;;;;9.35;5.47;;;;;;;;;;1044804;28;20104;-80
2022/11/12 00:56:41;;;;;;;8.18;5.47;;;;;;;;;;1044166;28;20020;-81
2022/11/12 00:57:12;;;;;;;7.05;5.18;;;;;;;;;;1044643;28;20136;-82
2022/11/12 00:57:43;;;;;;;5.82;4.90;;;;;;;;;;1047988;28;20031;-80
2022/11/12 00:58:14;;;;;;;6.60;4.93;;;;;;;;;;1048367;28;20104;-81
2022/11/12 00:58:45;;;;;;;7.93;5.30;;;;;;;;;;1048244;28;20032;-80
2022/11/12 00:59:16;;;;;;;6.65;5.80;;;;;;;;;;1048284;28;20067;-80
2022/11/12 00:59:47;;;;;;;7.43;5.38;;;;;;;;;;1044608;28;20024;-80
2022/11/12 01:00:19;;;;;;;7.70;5.68;;;;;;;;;;1043970;28;20028;-81
2022/11/12 01:00:51;;;;;;;6.68;5.18;;;;;;;;;;1044444;28;20033;-79
2022/11/12 01:01:22;;;;;;;6.97;5.50;;;;;;;;;;1043766;28;20044;-79
2022/11/12 01:01:53;;;;;;;7.03;5.40;;;;;;;;;;1040455;28;20073;-80
2022/11/12 01:02:24;;;;;;;7.57;5.28;;;;;;;;;;1040622;28;20025;-81
2022/11/12 01:02:55;;;;;;;6.93;5.18;;;;;;;;;;1044292;28;20112;-80
2022/11/12 01:03:27;;;;;;;6.55;5.00;;;;;;;;;;1043757;28;20028;-80
2022/11/12 01:03:59;;;;;;;9.27;6.05;;;;;;;;;;1044430;28;20021;-79
2022/11/12 01:04:30;;;;;;;7.10;5.43;;;;;;;;;;1049183;28;20027;-80
2022/11/12 01:05:01;;;;;;;6.35;5.30;;;;;;;;;;1047710;28;20020;-84
2022/11/12 01:05:33;;;;;;;7.88;5.72;;;;;;;;;;1036660;28;20087;-79
2022/11/12 01:06:13;;;;;;;8.38;5.32;;;;;;;;;;1040110;28;20021;-81
2022/11/12 01:06:44;;;;;;;6.82;5.10;;;;;;;;;;1045775;28;20577;-81
2022/11/12 01:07:15;;;;;;;7.25;5.80;;;;;;;;;;1049624;28;20642;-80
2022/11/12 01:07:46;;;;;;;6.68;5.10;;;;;;;;;;1048124;28;20123;-79
2022/11/12 01:08:17;;;;;;;7.82;5.43;;;;;;;;;;1047794;28;20027;-80
2022/11/12 01:08:49;;;;;;;7.22;5.90;;;;;;;;;;1044155;28;20048;-82
2022/11/12 01:09:20;;;;;;;5.65;4.65;;;;;;;;;;1047798;28;20024;-79
2022/11/12 01:09:51;;;;;;;7.28;5.47;;;;;;;;;;1044499;28;20040;-79
2022/11/12 01:10:22;;;;;;;8.57;5.50;;;;;;;;;;1048568;28;20029;-80
2022/11/12 01:10:53;;;;;;;8.82;5.60;;;;;;;;;;1051518;28;20023;-81
2022/11/12 01:11:26;;;;;;;6.80;5.35;;;;;;;;;;1047701;28;20044;-81
2022/11/12 01:11:57;;;;;;;7.72;5.40;;;;;;;;;;1051856;28;20020;-82
2022/11/12 01:12:29;;;;;;;7.47;4.65;;;;;;;;;;1052170;28;20213;-79
2022/11/12 01:13:00;;;;;;;6.22;5.20;;;;;;;;;;1048187;28;20028;-82
2022/11/12 01:13:31;;;;;;;7.43;5.90;;;;;;;;;;1048309;28;20021;-80
2022/11/12 01:14:04;;;;;;;6.20;5.22;;;;;;;;;;1047365;28;20034;-80
2022/11/12 01:14:35;;;;;;;7.13;5.28;;;;;;;;;;1048485;28;20040;-79
2022/11/12 01:15:07;;;;;;;6.57;5.05;;;;;;;;;;1050924;28;20016;-82
2022/11/12 01:15:41;;;;;;;6.82;4.55;;;;;;;;;;1044802;28;20025;-80
2022/11/12 01:16:14;;;;;;;8.23;5.18;;;;;;;;;;1047908;28;20021;-81
2022/11/12 01:16:45;;;;;;;7.43;5.63;;;;;;;;;;1047621;28;20032;-80
2022/11/12 01:17:16;;;;;;;6.07;5.40;;;;;;;;;;1052593;28;20146;-83
2022/11/12 01:17:47;;;;;;;5.18;4.55;;;;;;;;;;1052019;28;20036;-81
2022/11/12 01:18:18;;;;;;;10.40;5.72;;;;;;;;;;1052131;28;20023;-81
2022/11/12 01:18:52;;;;;;;7.00;5.20;;;;;;;;;;1052182;28;20026;-80
2022/11/12 01:19:23;;;;;;;9.70;5.70;;;;;;;;;;1051286;28;20096;-80
2022/11/12 01:19:54;;;;;;;5.35;4.60;;;;;;;;;;1052238;28;20039;-81
2022/11/12 01:20:25;;;;;;;6.00;4.72;;;;;;;;;;1052354;28;20055;-81
2022/11/12 01:20:59;;;;;;;5.90;4.72;;;;;;;;;;1048009;28;20024;-80
2022/11/12 01:21:31;;;;;;;6.35;5.13;;;;;;;;;;1052136;28;20032;-80
2022/11/12 01:22:02;;;;;;;8.85;5.43;;;;;;;;;;1051767;28;20032;-80
2022/11/12 01:22:33;;;;;;;5.78;4.80;;;;;;;;;;1051974;28;20024;-80
2022/11/12 01:23:04;;;;;;;7.32;5.32;;;;;;;;;;1052608;28;20182;-81
2022/11/12 01:23:37;;;;;;;6.80;5.35;;;;;;;;;;1051804;28;20028;-81
2022/11/12 01:24:08;;;;;;;6.78;4.93;;;;;;;;;;1047694;28;20499;-81
2022/11/12 01:24:39;;;;;;;7.25;5.10;;;;;;;;;;1047330;28;20032;-81
2022/11/12 01:25:10;;;;;;;6.95;5.32;;;;;;;;;;1041302;28;20029;-80
2022/11/12 01:25:41;;;;;;;7.20;5.38;;;;;;;;;;1036140;28;20026;-82
2022/11/12 01:26:13;;;;;;;6.75;4.72;;;;;;;;;;1035469;28;20033;-80
2022/11/12 01:26:44;;;;;;;13.00;5.57;;;;;;;;;;1035730;28;20384;-81
2022/11/12 01:27:15;;;;;;;7.03;5.70;;;;;;;;;;1039623;28;20526;-81
2022/11/12 01:27:46;;;;;;;6.78;4.90;;;;;;;;;;1044226;28;20029;-82
2022/11/12 01:28:17;;;;;;;7.32;5.50;;;;;;;;;;1047655;28;20076;-82
2022/11/12 01:28:48;;;;;;;9.07;4.93;;;;;;;;;;1048018;28;20414;-80
2022/11/12 01:29:19;;;;;;;7.18;5.35;;;;;;;;;;1048385;28;20390;-81
2022/11/12 01:29:50;;;;;;;7.63;4.50;;;;;;;;;;1051720;28;20493;-80
2022/11/12 01:30:21;;;;;;;9.48;6.00;;;;;;;;;;1048021;28;20028;-81
2022/11/12 01:30:52;;;;;;;8.10;5.80;;;;;;;;;;1051278;28;20035;-82
2022/11/12 01:31:24;;;;;;;8.63;5.40;;;;;;;;;;1043441;28;20125;-80
2022/11/12 01:31:55;;;;;;;7.70;5.22;;;;;;;;;;1043591;28;20106;-81
2022/11/12 01:32:26;;;;;;;6.82;5.65;;;;;;;;;;1039254;28;20064;-80
2022/11/12 01:32:57;;;;;;;5.82;4.80;;;;;;;;;;1039789;28;20010;-81
2022/11/12 01:33:28;;;;;;;6.35;5.35;;;;;;;;;;1043382;28;20021;-80
2022/11/12 01:34:00;;;;;;;7.63;5.82;;;;;;;;;;1043713;28;20074;-80
2022/11/12 01:34:31;;;;;;;6.85;5.40;;;;;;;;;;1042305;28;20028;-80
2022/11/12 01:35:03;;;;;;;10.63;6.32;;;;;;;;;;1047603;28;20005;-81
2022/11/12 01:35:34;;;;;;;7.15;6.00;;;;;;;;;;1047816;28;20016;-81
2022/11/12 01:36:05;;;;;;;8.23;6.20;;;;;;;;;;1043376;28;20100;-81
2022/11/12 01:36:37;;;;;;;7.90;5.78;;;;;;;;;;1039907;28;20020;-80
2022/11/12 01:37:08;;;;;;;6.15;5.53;;;;;;;;;;1043285;28;20021;-80
2022/11/12 01:37:39;;;;;;;7.80;6.10;;;;;;;;;;1043385;28;20028;-81
2022/11/12 01:38:10;;;;;;;9.27;6.55;;;;;;;;;;1043944;28;20144;-80
2022/11/12 01:38:42;;;;;;;8.73;6.43;;;;;;;;;;1046026;28;20367;-80
2022/11/12 01:39:13;;;;;;;7.88;5.88;;;;;;;;;;1043736;28;20052;-81
2022/11/12 01:39:44;;;;;;;8.63;5.70;;;;;;;;;;1047963;28;20017;-80
2022/11/12 01:40:16;;;;;;;6.55;5.85;;;;;;;;;;1047530;28;20273;-80
2022/11/12 01:40:46;;;;;;;8.48;6.00;;;;;;;;;;1052246;28;20103;-79
2022/11/12 01:41:20;;;;;;;9.82;6.57;;;;;;;;;;1049346;28;20004;-79
2022/11/12 01:41:51;;;;;;;8.43;6.07;;;;;;;;;;1043635;28;20029;-80
2022/11/12 01:42:23;;;;;;;8.50;6.35;;;;;;;;;;1043453;28;20028;-79
2022/11/12 01:42:54;;;;;;;7.90;6.43;;;;;;;;;;1043893;28;20070;-80
2022/11/12 01:43:25;;;;;;;6.75;5.53;;;;;;;;;;1047570;28;20205;-80
2022/11/12 01:44:11;;;;;;;10.90;6.13;;;;;;;;;;1047627;28;20008;-79
2022/11/12 01:44:44;;;;;;;10.93;6.97;;;;;;;;;;1048167;28;20044;-79
2022/11/12 01:45:15;;;;;;;7.43;5.90;;;;;;;;;;1051370;28;20016;-78
2022/11/12 01:45:49;;;;;;;8.10;6.25;;;;;;;;;;1051889;28;20135;-80
2022/11/12 01:46:24;;;;;;;6.93;5.68;;;;;;;;;;1050378;28;20027;-78
2022/11/12 01:47:04;;;;;;;7.65;5.78;;;;;;;;;;1047298;28;20041;-80
2022/11/12 01:47:35;;;;;;;8.52;6.60;;;;;;;;;;1043013;28;20063;-81
2022/11/12 01:48:11;;;;;;;6.75;5.30;;;;;;;;;;1041145;28;20017;-80
2022/11/12 01:48:47;;;;;;;9.02;6.50;;;;;;;;;;1039574;28;20119;-79
2022/11/12 01:49:23;;;;;;;8.90;6.70;;;;;;;;;;1036794;28;20463;-79
2022/11/12 01:50:07;;;;;;;6.85;5.85;;;;;;;;;;1040713;28;20014;-80
2022/11/12 01:50:43;;;;;;;8.98;6.10;;;;;;;;;;1046281;28;20036;-79
2022/11/12 01:51:15;;;;;;;8.50;6.80;;;;;;;;;;1052049;28;20020;-79
2022/11/12 01:51:47;;;;;;;8.18;5.78;;;;;;;;;;1044531;28;20020;-79
2022/11/12 01:52:21;;;;;;;8.50;5.72;;;;;;;;;;1040406;28;20010;-78
2022/11/12 01:53:01;;;;;;;7.30;6.03;;;;;;;;;;1040593;28;20013;-79
2022/11/12 01:53:35;;;;;;;7.28;5.72;;;;;;;;;;1042776;28;20057;-78
2022/11/12 01:54:08;;;;;;;7.95;7.00;;;;;;;;;;1042640;28;20048;-80
2022/11/12 01:54:40;;;;;;;10.38;7.15;;;;;;;;;;1040632;28;20014;-79
2022/11/12 01:55:13;;;;;;;8.55;6.15;;;;;;;;;;1037582;28;20033;-79
2022/11/12 01:55:44;;;;;;;7.47;6.53;;;;;;;;;;1040714;28;20031;-80
2022/11/12 01:56:16;;;;;;;8.60;6.45;;;;;;;;;;1040522;28;20021;-80
2022/11/12 01:56:48;;;;;;;10.32;5.28;;;;;;;;;;1043947;28;20036;-80
2022/11/12 01:57:22;;;;;;;8.23;5.80;;;;;;;;;;1047704;28;20040;-79
2022/11/12 01:58:03;;;;;;;8.45;6.10;;;;;;;;;;1040036;28;20075;-80
2022/11/12 01:58:36;;;;;;;9.90;6.43;;;;;;;;;;1041151;28;20010;-80
2022/11/12 01:59:11;;;;;;;7.57;6.25;;;;;;;;;;1042633;28;20049;-80
2022/11/12 01:59:44;;;;;;;7.72;6.40;;;;;;;;;;1047062;28;20143;-79
2022/11/12 02:00:15;;;;;;;8.95;6.78;;;;;;;;;;1049423;28;20009;-79
2022/11/12 02:00:46;;;;;;;8.00;7.13;;;;;;;;;;1052750;28;20069;-80
2022/11/12 02:01:17;;;;;;;9.90;6.93;;;;;;;;;;1048795;28;20021;-80
2022/11/12 02:01:48;;;;;;;7.82;6.22;;;;;;;;;;1044921;28;20017;-79
2022/11/12 02:02:19;;;;;;;8.07;6.38;;;;;;;;;;1044567;28;20244;-79
2022/11/12 02:02:55;;;;;;;7.95;6.30;;;;;;;;;;1044843;28;20029;-79
2022/11/12 02:03:26;;;;;;;7.90;6.25;;;;;;;;;;1049497;28;20027;-79
2022/11/12 02:03:56;;;;;;;8.70;6.28;;;;;;;;;;1048446;28;20027;-81
2022/11/12 02:04:27;;;;;;;7.18;5.65;;;;;;;;;;1049910;28;20020;-79
2022/11/12 02:04:59;;;;;;;7.25;5.78;;;;;;;;;;1052788;28;20103;-79
2022/11/12 02:05:31;;;;;;;8.63;6.38;;;;;;;;;;1048540;28;20127;-79
2022/11/12 02:06:03;;;;;;;9.05;5.97;;;;;;;;;;1044589;28;20021;-80
2022/11/12 02:06:35;;;;;;;8.95;5.57;;;;;;;;;;1044533;28;20016;-79
2022/11/12 02:07:06;;;;;;;8.90;6.00;;;;;;;;;;1045157;28;20436;-80
2022/11/12 02:07:38;;;;;;;6.72;6.03;;;;;;;;;;1045035;28;20032;-80
2022/11/12 02:08:11;;;;;;;9.60;5.88;;;;;;;;;;1044071;28;20071;-79
2022/11/12 02:08:43;;;;;;;10.45;6.32;;;;;;;;;;1044270;28;20392;-80
2022/11/12 02:09:14;;;;;;;8.52;6.97;;;;;;;;;;1044318;28;20017;-81
2022/11/12 02:09:45;;;;;;;8.68;6.70;;;;;;;;;;1045096;28;20017;-79
2022/11/12 02:10:16;;;;;;;8.73;5.70;;;;;;;;;;1049242;28;20029;-81
2022/11/12 02:10:47;;;;;;;7.35;6.55;;;;;;;;;;1044336;28;20479;-79
2022/11/12 02:11:19;;;;;;;8.55;6.68;;;;;;;;;;1040080;28;20473;-78
2022/11/12 02:11:50;;;;;;;8.18;6.43;;;;;;;;;;1045216;28;20018;-77
2022/11/12 02:14:00;;;;;;;7.00;6.03;;;;;;;;;;1052015;28;20441;-80
2022/11/12 02:14:31;;;;;;;10.52;6.30;;;;;;;;;;1048837;28;20092;-79
2022/11/12 02:15:03;;;;;;;7.75;5.65;;;;;;;;;;1048806;28;20063;-79
2022/11/12 02:15:34;;;;;;;8.93;5.65;;;;;;;;;;1044645;28;20025;-79
2022/11/12 02:16:06;;;;;;;7.22;5.97;;;;;;;;;;1044804;28;20472;-79
2022/11/12 02:16:41;;;;;;;7.22;5.72;;;;;;;;;;1044223;28;20024;-80
2022/11/12 02:17:13;;;;;;;8.05;6.47;;;;;;;;;;1048184;28;20024;-79
2022/11/12 02:17:44;;;;;;;9.52;6.28;;;;;;;;;;1047163;28;20025;-78
2022/11/12 02:18:15;;;;;;;7.45;5.88;;;;;;;;;;1041104;28;20049;-79
2022/11/12 02:18:46;;;;;;;8.82;6.30;;;;;;;;;;1040374;28;20022;-80
2022/11/12 02:19:17;;;;;;;7.05;5.60;;;;;;;;;;1044796;28;20022;-82
2022/11/12 02:19:48;;;;;;;6.88;5.18;;;;;;;;;;1044864;28;20167;-78
2022/11/12 02:20:19;;;;;;;9.88;6.50;;;;;;;;;;1044246;28;20043;-78
2022/11/12 02:20:57;;;;;;;8.52;6.22;;;;;;;;;;1043117;28;20045;-78
2022/11/12 02:21:29;;;;;;;8.95;5.70;;;;;;;;;;1049869;28;20027;-78
2022/11/12 02:22:00;;;;;;;7.50;5.97;;;;;;;;;;1053038;28;20027;-79
2022/11/12 02:22:31;;;;;;;8.23;5.43;;;;;;;;;;1048360;28;20020;-80
2022/11/12 02:23:02;;;;;;;7.35;6.32;;;;;;;;;;1048955;28;20013;-79
2022/11/12 02:23:33;;;;;;;8.48;6.53;;;;;;;;;;1052720;28;20027;-78
2022/11/12 02:24:04;;;;;;;9.63;6.68;;;;;;;;;;1052978;28;20032;-79
2022/11/12 02:24:35;;;;;;;8.75;7.00;;;;;;;;;;1052538;28;20027;-79
2022/11/12 02:25:07;;;;;;;8.27;6.63;;;;;;;;;;1048639;28;20024;-80
2022/11/12 02:25:38;;;;;;;9.30;6.75;;;;;;;;;;1044773;28;20063;-79
2022/11/12 02:26:09;;;;;;;7.95;6.07;;;;;;;;;;1044392;28;20021;-79
2022/11/12 02:26:41;;;;;;;9.40;6.63;;;;;;;;;;1044838;28;20021;-79
2022/11/12 02:27:12;;;;;;;8.27;6.22;;;;;;;;;;1044816;28;20525;-81
2022/11/12 02:27:44;;;;;;;8.88;6.13;;;;;;;;;;1044097;28;20021;-79
2022/11/12 02:28:15;;;;;;;9.18;6.80;;;;;;;;;;1040184;28;20032;-80
2022/11/12 02:28:46;;;;;;;9.77;7.38;;;;;;;;;;1039375;28;20436;-79
2022/11/12 02:29:17;;;;;;;7.82;6.30;;;;;;;;;;1040873;28;20506;-81
2022/11/12 02:29:48;;;;;;;8.30;6.50;;;;;;;;;;1044938;28;20029;-79
2022/11/12 02:30:20;;;;;;;8.10;6.75;;;;;;;;;;1044122;28;20055;-79
2022/11/12 02:30:51;;;;;;;8.50;6.25;;;;;;;;;;1048499;28;20028;-79
2022/11/12 02:31:22;;;;;;;7.60;5.65;;;;;;;;;;1048495;28;20021;-78
2022/11/12 02:31:53;;;;;;;8.27;6.53;;;;;;;;;;1048733;28;20177;-79
2022/11/12 02:32:24;;;;;;;6.70;5.55;;;;;;;;;;1044822;28;20020;-79
2022/11/12 02:32:55;;;;;;;13.32;7.03;;;;;;;;;;1053219;28;20644;-82
2022/11/12 02:33:26;;;;;;;11.57;6.43;;;;;;;;;;1052743;28;20053;-79
2022/11/12 02:33:57;;;;;;;11.20;7.38;;;;;;;;;;1052674;28;20024;-80
2022/11/12 02:34:28;;;;;;;7.85;5.90;;;;;;;;;;1048411;28;20091;-79
2022/11/12 02:34:59;;;;;;;6.53;5.57;;;;;;;;;;1044459;28;20399;-79
2022/11/12 02:35:30;;;;;;;8.35;6.38;;;;;;;;;;1044525;28;20043;-80
2022/11/12 02:36:01;;;;;;;9.30;6.13;;;;;;;;;;1048079;28;20021;-80
2022/11/12 02:36:32;;;;;;;7.57;5.93;;;;;;;;;;1041591;28;20045;-80
2022/11/12 02:37:03;;;;;;;8.32;6.28;;;;;;;;;;1044406;28;20055;-80
2022/11/12 02:37:34;;;;;;;10.70;6.90;;;;;;;;;;1044765;28;20013;-79
2022/11/12 02:38:05;;;;;;;7.78;6.07;;;;;;;;;;1044584;28;20017;-81
2022/11/12 02:38:36;;;;;;;6.65;5.72;;;;;;;;;;1044772;28;20110;-85
2022/11/12 02:39:07;;;;;;;7.78;5.95;;;;;;;;;;1040152;28;20097;-82
2022/11/12 02:39:38;;;;;;;9.52;6.07;;;;;;;;;;1040309;28;20717;-79
2022/11/12 02:40:09;;;;;;;7.47;6.03;;;;;;;;;;1040439;28;20025;-79
2022/11/12 02:40:40;;;;;;;7.75;6.40;;;;;;;;;;1043161;28;20112;-82
2022/11/12 02:41:11;;;;;;;8.88;6.50;;;;;;;;;;1045982;28;20070;-79
2022/11/12 02:41:42;;;;;;;8.23;6.75;;;;;;;;;;1048376;28;20107;-79
2022/11/12 02:42:13;;;;;;;8.13;6.50;;;;;;;;;;1048230;28;20023;-81
2022/11/12 02:42:44;;;;;;;7.40;6.57;;;;;;;;;;1043758;28;20102;-80
2022/11/12 02:43:15;;;;;;;7.97;6.55;;;;;;;;;;1039843;28;20021;-79
2022/11/12 02:43:46;;;;;;;7.25;5.60;;;;;;;;;;1042405;28;20021;-79
2022/11/12 02:44:17;;;;;;;9.63;7.28;;;;;;;;;;1044032;28;20485;-81
2022/11/12 02:44:48;;;;;;;8.65;6.55;;;;;;;;;;1048311;28;20107;-80
2022/11/12 02:45:20;;;;;;;8.18;6.25;;;;;;;;;;1048018;28;20325;-79
2022/11/12 02:45:51;;;;;;;10.05;6.75;;;;;;;;;;1047576;28;20379;-80
2022/11/12 02:46:22;;;;;;;7.43;5.70;;;;;;;;;;1049212;28;20013;-80
2022/11/12 02:46:53;;;;;;;6.70;5.60;;;;;;;;;;1044127;28;20494;-79
2022/11/12 02:47:24;;;;;;;6.65;5.80;;;;;;;;;;1047931;28;20028;-80
2022/11/12 02:47:55;;;;;;;7.85;5.85;;;;;;;;;;1041641;28;20112;-79
2022/11/12 02:48:26;;;;;;;9.60;5.63;;;;;;;;;;1045367;28;20420;-78
2022/11/12 02:48:57;;;;;;;6.57;5.88;;;;;;;;;;1046639;28;20123;-80
2022/11/12 02:49:27;;;;;;;8.75;6.82;;;;;;;;;;1048036;28;20095;-79
2022/11/12 02:49:58;;;;;;;5.32;4.63;;;;;;;;;;1048177;28;20029;-80
2022/11/12 02:50:29;;;;;;;8.18;5.85;;;;;;;;;;1044102;28;20024;-80
2022/11/12 02:51:00;;;;;;;7.15;6.15;;;;;;;;;;1043854;28;20446;-80
2022/11/12 02:51:31;;;;;;;8.73;5.90;;;;;;;;;;1037382;28;20056;-81
2022/11/12 02:52:02;;;;;;;7.65;5.60;;;;;;;;;;1039744;28;20104;-81
2022/11/12 02:52:33;;;;;;;7.60;5.72;;;;;;;;;;1040143;28;20018;-78
2022/11/12 02:53:04;;;;;;;8.40;5.90;;;;;;;;;;1040082;28;20033;-80
2022/11/12 02:53:35;;;;;;;7.82;5.88;;;;;;;;;;1039678;28;20024;-79
2022/11/12 02:54:06;;;;;;;7.45;5.38;;;;;;;;;;1041266;28;20088;-81
2022/11/12 02:54:37;;;;;;;7.70;6.40;;;;;;;;;;1039780;28;20025;-80
2022/11/12 02:55:09;;;;;;;7.95;6.28;;;;;;;;;;1043987;28;20025;-80
2022/11/12 02:55:40;;;;;;;8.23;6.20;;;;;;;;;;1048456;28;20085;-79
2022/11/12 02:56:11;;;;;;;8.10;6.15;;;;;;;;;;1045021;28;20083;-81
2022/11/12 02:56:42;;;;;;;6.70;6.00;;;;;;;;;;1044849;28;20025;-80
2022/11/12 02:57:12;;;;;;;8.95;6.72;;;;;;;;;;1039590;28;20684;-80
2022/11/12 02:57:43;;;;;;;8.30;6.28;;;;;;;;;;1046774;28;20055;-81
2022/11/12 02:58:15;;;;;;;9.63;6.03;;;;;;;;;;1047545;28;20055;-80
2022/11/12 02:58:45;;;;;;;7.57;6.22;;;;;;;;;;1043610;28;20395;-81
2022/11/12 02:59:16;;;;;;;7.60;6.43;;;;;;;;;;1040105;28;20479;-83
2022/11/12 02:59:47;;;;;;;8.45;6.70;;;;;;;;;;1040022;28;20029;-80
2022/11/12 03:00:18;;;;;;;7.32;6.18;;;;;;;;;;1039773;28;20029;-81
2022/11/12 03:00:49;;;;;;;6.30;5.45;;;;;;;;;;1039811;28;20032;-79
2022/11/12 03:01:20;;;;;;;8.55;6.05;;;;;;;;;;1039602;28;20424;-81
2022/11/12 03:01:51;;;;;;;10.77;7.75;;;;;;;;;;1040500;28;20112;-79
2022/11/12 03:02:22;;;;;;;8.55;6.28;;;;;;;;;;1043643;28;20017;-80
2022/11/12 03:02:57;;;;;;;7.55;5.85;;;;;;;;;;1043979;28;20467;-81
2022/11/12 03:03:28;;;;;;;7.68;6.85;;;;;;;;;;1046140;28;20051;-81
2022/11/12 03:03:59;;;;;;;8.85;5.82;;;;;;;;;;1048531;28;20422;-80
2022/11/12 03:04:30;;;;;;;8.90;5.55;;;;;;;;;;1047125;28;20419;-80
2022/11/12 03:05:01;;;;;;;10.52;7.10;;;;;;;;;;1041314;28;20029;-80
2022/11/12 03:05:33;;;;;;;9.30;6.05;;;;;;;;;;1040349;28;20021;-81
2022/11/12 03:06:04;;;;;;;7.18;5.75;;;;;;;;;;1046255;28;20032;-80
2022/11/12 03:06:35;;;;;;;10.23;6.20;;;;;;;;;;1048957;28;20031;-81
2022/11/12 03:07:06;;;;;;;7.53;5.82;;;;;;;;;;1050367;28;20499;-81
2022/11/12 03:07:38;;;;;;;9.23;6.47;;;;;;;;;;1047319;28;20028;-80
2022/11/12 03:08:09;;;;;;;17.08;7.35;;;;;;;;;;1047823;28;20056;-80
2022/11/12 03:08:40;;;;;;;6.93;5.93;;;;;;;;;;1045706;28;20053;-79
2022/11/12 03:09:12;;;;;;;8.50;6.65;;;;;;;;;;1047807;28;20020;-81
2022/11/12 03:09:43;;;;;;;8.27;6.60;;;;;;;;;;1048419;28;20118;-79
2022/11/12 03:10:14;;;;;;;8.32;6.30;;;;;;;;;;1047742;28;20533;-80
2022/11/12 03:10:45;;;;;;;8.13;6.72;;;;;;;;;;1047192;28;20020;-80